Time;durP1;ratioP1;P1;durP2;ratioP2;P2;SDS_P1;SDS_P2;PMS_P1;PMS_P2;Temp;Humidity;BMP_temperature;BMP_pressure;BME280_temperature;BME280_humidity;BME280_pressure;Samples;Min_cycle;Max_cycle;Signal;HPM_P1;HPM_P2
2021/12/18 00:00:52;;;;;;;;;38.50;36.50;;;;;;;;5070156;28;12287;-81
2021/12/18 00:03:19;;;;;;;;;42.75;37.50;;;;;;;;5076380;28;11613;-81
2021/12/18 00:05:48;;;;;;;;;45.00;39.50;;;;;;;;5072607;28;11658;-80
2021/12/18 00:08:15;;;;;;;;;44.75;39.50;;;;;;;;5075727;28;11669;-81
2021/12/18 00:10:45;;;;;;;;;44.25;42.25;;;;;;;;5080029;28;11553;-83
2021/12/18 00:13:12;;;;;;;;;33.75;33.75;;;;;;;;5081425;28;11567;-81
2021/12/18 00:15:39;;;;;;;;;38.25;34.50;;;;;;;;5065986;28;11542;-83
2021/12/18 00:18:07;;;;;;;;;40.75;36.75;;;;;;;;5078143;28;11553;-79
2021/12/18 00:20:36;;;;;;;;;24.75;21.50;;;;;;;;5078931;28;12902;-85
2021/12/18 00:23:05;;;;;;;;;38.75;34.75;;;;;;;;5083894;28;11667;-82
2021/12/18 00:25:33;;;;;;;;;37.75;35.25;;;;;;;;5075034;28;11540;-80
2021/12/18 00:28:00;;;;;;;;;35.25;29.25;;;;;;;;5080480;28;11709;-82
2021/12/18 00:30:28;;;;;;;;;28.50;28.50;;;;;;;;5069666;28;11616;-82
2021/12/18 00:32:55;;;;;;;;;34.50;30.50;;;;;;;;5063462;28;11543;-84
2021/12/18 00:35:23;;;;;;;;;33.25;32.25;;;;;;;;5078338;28;11669;-84
2021/12/18 00:37:50;;;;;;;;;32.25;27.50;;;;;;;;5054157;28;11645;-82
2021/12/18 00:40:23;;;;;;;;;24.25;24.25;;;;;;;;5060138;28;11524;-83
2021/12/18 00:42:57;;;;;;;;;32.25;28.50;;;;;;;;5084457;28;11541;-82
2021/12/18 00:45:25;;;;;;;;;28.00;24.00;;;;;;;;5081098;28;11594;-82
2021/12/18 00:47:53;;;;;;;;;34.25;30.00;;;;;;;;5073558;28;11577;-85
2021/12/18 00:50:22;;;;;;;;;30.25;30.25;;;;;;;;5065773;28;11575;-83
2021/12/18 00:52:50;;;;;;;;;35.00;29.25;;;;;;;;5082167;28;11688;-85
2021/12/18 00:55:20;;;;;;;;;39.75;29.50;;;;;;;;5080922;28;11574;-85
2021/12/18 00:57:48;;;;;;;;;26.75;25.75;;;;;;;;5077687;28;11572;-79
2021/12/18 01:00:21;;;;;;;;;17.75;17.50;;;;;;;;5084603;28;11740;-83
2021/12/18 01:02:50;;;;;;;;;26.50;22.50;;;;;;;;5084983;28;11514;-86
2021/12/18 01:05:17;;;;;;;;;30.25;24.25;;;;;;;;5080466;28;11590;-82
2021/12/18 01:07:45;;;;;;;;;28.00;27.50;;;;;;;;5078679;28;12414;-80
2021/12/18 01:10:28;;;;;;;;;34.50;27.75;;;;;;;;5077647;28;11564;-83
2021/12/18 01:12:59;;;;;;;;;29.00;27.50;;;;;;;;5076223;28;11566;-85
2021/12/18 01:15:31;;;;;;;;;19.00;17.50;;;;;;;;5080124;28;11620;-80
2021/12/18 01:23:28;;;;;;;;;26.00;25.00;;;;;;;;5082613;28;11586;-82
2021/12/18 01:25:57;;;;;;;;;20.25;20.25;;;;;;;;5070666;28;11597;-81
2021/12/18 01:28:26;;;;;;;;;22.50;19.25;;;;;;;;5082449;28;11536;-82
2021/12/18 01:30:54;;;;;;;;;20.00;20.00;;;;;;;;5066762;28;11623;-86
2021/12/18 01:33:21;;;;;;;;;23.75;16.75;;;;;;;;5066606;28;11547;-84
2021/12/18 01:35:49;;;;;;;;;13.50;11.25;;;;;;;;5064208;28;11524;-82
2021/12/18 01:38:17;;;;;;;;;24.00;18.25;;;;;;;;5077374;28;12360;-81
2021/12/18 01:40:45;;;;;;;;;37.25;26.25;;;;;;;;5081977;28;11615;-88
2021/12/18 01:51:59;;;;;;;;;21.50;20.00;;;;;;;;5079942;28;12309;-81
2021/12/18 01:54:26;;;;;;;;;22.00;16.50;;;;;;;;5078966;28;11615;-82
2021/12/18 01:56:53;;;;;;;;;28.75;26.50;;;;;;;;5073715;28;11674;-82
2021/12/18 01:59:34;;;;;;;;;23.25;19.75;;;;;;;;5080170;28;11603;-89
2021/12/18 02:02:03;;;;;;;;;21.75;20.00;;;;;;;;5074334;28;11532;-87
2021/12/18 02:04:33;;;;;;;;;22.75;20.50;;;;;;;;5082876;28;11547;-87
2021/12/18 02:07:00;;;;;;;;;18.50;16.00;;;;;;;;5083980;28;11623;-83
2021/12/18 02:09:43;;;;;;;;;22.50;20.50;;;;;;;;5078120;28;11657;-82
2021/12/18 02:12:11;;;;;;;;;25.75;25.75;;;;;;;;5081727;28;11500;-87
2021/12/18 02:20:23;;;;;;;;;23.75;22.50;;;;;;;;5057842;28;11497;-81
2021/12/18 02:22:50;;;;;;;;;32.50;24.00;;;;;;;;5073981;28;12347;-86
2021/12/18 02:25:19;;;;;;;;;28.75;26.25;;;;;;;;5075336;28;11628;-85
2021/12/18 02:27:49;;;;;;;;;26.00;23.25;;;;;;;;5055636;28;11535;-86
2021/12/18 02:30:17;;;;;;;;;22.00;18.00;;;;;;;;5083601;28;12434;-80
2021/12/18 02:32:44;;;;;;;;;28.50;24.75;;;;;;;;5075637;28;11529;-79
2021/12/18 02:35:26;;;;;;;;;25.50;25.25;;;;;;;;5055516;28;11561;-87
2021/12/18 02:38:07;;;;;;;;;22.75;21.25;;;;;;;;5086113;28;11498;-81
2021/12/18 02:43:33;;;;;;;;;19.75;16.50;;;;;;;;5078871;28;11749;-80
2021/12/18 02:46:06;;;;;;;;;21.00;15.00;;;;;;;;5075628;28;11521;-84
2021/12/18 02:48:35;;;;;;;;;25.25;24.00;;;;;;;;5066310;28;11629;-88
2021/12/18 02:51:05;;;;;;;;;19.25;18.75;;;;;;;;5070311;28;11573;-87
2021/12/18 02:53:32;;;;;;;;;21.50;19.00;;;;;;;;5083475;28;11479;-80
2021/12/18 02:56:04;;;;;;;;;23.75;21.50;;;;;;;;5081498;28;11480;-87
2021/12/18 02:58:32;;;;;;;;;15.25;15.00;;;;;;;;5070889;28;11593;-86
2021/12/18 03:01:01;;;;;;;;;25.50;24.50;;;;;;;;5079496;28;11487;-87
2021/12/18 03:03:32;;;;;;;;;21.25;21.25;;;;;;;;5081775;28;11486;-87
2021/12/18 03:06:13;;;;;;;;;21.75;21.75;;;;;;;;5066668;28;11507;-84
2021/12/18 03:08:49;;;;;;;;;25.00;20.25;;;;;;;;5071648;28;11545;-81
2021/12/18 03:25:04;;;;;;;;;27.50;24.25;;;;;;;;5082170;28;11495;-80
2021/12/18 03:27:32;;;;;;;;;21.00;17.25;;;;;;;;5074360;28;11485;-83
2021/12/18 03:29:59;;;;;;;;;21.25;20.75;;;;;;;;5068636;28;11594;-81
2021/12/18 03:32:27;;;;;;;;;24.50;20.75;;;;;;;;5069755;28;11418;-79
2021/12/18 03:34:55;;;;;;;;;28.75;24.25;;;;;;;;5060391;28;11548;-81
2021/12/18 03:37:23;;;;;;;;;21.25;17.00;;;;;;;;5083699;28;11539;-82
2021/12/18 03:39:51;;;;;;;;;29.50;24.75;;;;;;;;5083857;28;12290;-82
2021/12/18 03:42:19;;;;;;;;;33.75;29.75;;;;;;;;5073991;28;11531;-83
2021/12/18 03:44:47;;;;;;;;;32.75;26.25;;;;;;;;5086348;28;11621;-86
2021/12/18 03:47:15;;;;;;;;;25.50;21.00;;;;;;;;5083818;28;11524;-81
2021/12/18 03:49:42;;;;;;;;;32.25;25.50;;;;;;;;5086651;28;11514;-86
2021/12/18 03:52:09;;;;;;;;;21.50;21.50;;;;;;;;5069046;28;11541;-81
2021/12/18 03:54:37;;;;;;;;;27.75;25.00;;;;;;;;5079169;28;11739;-81
2021/12/18 03:57:05;;;;;;;;;30.50;23.25;;;;;;;;5076527;28;11628;-81
2021/12/18 03:59:34;;;;;;;;;27.75;26.50;;;;;;;;5084789;28;12482;-82
2021/12/18 04:02:01;;;;;;;;;25.75;25.75;;;;;;;;5080155;28;11440;-81
2021/12/18 04:04:28;;;;;;;;;28.00;24.50;;;;;;;;5078803;28;12419;-83
2021/12/18 04:06:56;;;;;;;;;33.25;26.75;;;;;;;;5085987;28;11547;-84
2021/12/18 04:09:23;;;;;;;;;26.75;23.75;;;;;;;;5066806;28;12016;-85
2021/12/18 04:11:50;;;;;;;;;26.00;18.25;;;;;;;;5089643;27;11556;-85
2021/12/18 04:14:18;;;;;;;;;17.25;17.00;;;;;;;;5077978;28;11537;-82
2021/12/18 04:16:48;;;;;;;;;26.75;22.25;;;;;;;;5081039;28;11581;-83
2021/12/18 04:19:15;;;;;;;;;20.50;18.25;;;;;;;;5084021;28;11536;-84
2021/12/18 04:21:42;;;;;;;;;19.25;16.25;;;;;;;;5082854;28;12321;-81
2021/12/18 04:24:10;;;;;;;;;26.00;23.75;;;;;;;;5079643;28;11630;-82
2021/12/18 04:26:38;;;;;;;;;22.75;22.75;;;;;;;;5083100;28;11536;-85
2021/12/18 04:29:06;;;;;;;;;24.25;23.00;;;;;;;;5066750;28;11541;-85
2021/12/18 04:31:34;;;;;;;;;24.00;20.00;;;;;;;;5071809;28;11520;-82
2021/12/18 04:34:03;;;;;;;;;20.75;16.50;;;;;;;;5081973;28;11678;-81
2021/12/18 04:36:31;;;;;;;;;33.75;27.75;;;;;;;;5089657;28;11498;-83
2021/12/18 04:38:59;;;;;;;;;31.75;29.50;;;;;;;;5080797;28;12296;-83
2021/12/18 04:41:37;;;;;;;;;17.75;17.75;;;;;;;;5083184;28;11665;-82
2021/12/18 04:44:05;;;;;;;;;32.25;26.75;;;;;;;;5064648;28;11549;-84
2021/12/18 04:46:33;;;;;;;;;26.25;21.00;;;;;;;;5083341;28;11572;-85
2021/12/18 04:49:01;;;;;;;;;24.00;20.75;;;;;;;;5081609;28;11538;-84
2021/12/18 04:51:29;;;;;;;;;28.00;24.00;;;;;;;;5078408;28;11684;-79
2021/12/18 04:53:56;;;;;;;;;29.75;27.75;;;;;;;;5063979;28;11522;-81
2021/12/18 04:56:24;;;;;;;;;24.25;22.50;;;;;;;;5081501;28;11651;-82
2021/12/18 04:58:51;;;;;;;;;34.75;32.00;;;;;;;;5075758;28;11534;-84
2021/12/18 05:01:18;;;;;;;;;26.25;23.50;;;;;;;;5079345;28;11561;-83
2021/12/18 05:06:54;;;;;;;;;33.25;28.50;;;;;;;;5077138;28;11505;-81
2021/12/18 05:09:22;;;;;;;;;31.50;30.00;;;;;;;;5084581;28;12433;-80
2021/12/18 05:11:50;;;;;;;;;23.50;16.00;;;;;;;;5060543;28;11535;-81
2021/12/18 05:14:18;;;;;;;;;26.00;22.25;;;;;;;;5050264;28;11681;-80
2021/12/18 05:16:47;;;;;;;;;24.50;24.50;;;;;;;;5070125;28;11526;-82
2021/12/18 05:19:15;;;;;;;;;24.50;24.50;;;;;;;;5059787;28;11619;-81
2021/12/18 05:21:42;;;;;;;;;29.50;22.50;;;;;;;;5077765;28;11696;-80
2021/12/18 05:24:11;;;;;;;;;31.50;25.00;;;;;;;;5080128;28;11594;-81
2021/12/18 05:29:23;;;;;;;;;29.75;23.00;;;;;;;;5078815;28;11586;-87
2021/12/18 05:31:51;;;;;;;;;32.50;30.75;;;;;;;;5081133;28;11511;-87
2021/12/18 05:34:23;;;;;;;;;23.25;21.50;;;;;;;;5080027;28;11552;-85
2021/12/18 05:39:35;;;;;;;;;24.75;23.25;;;;;;;;5066627;28;11519;-84
2021/12/18 05:42:03;;;;;;;;;29.25;27.50;;;;;;;;5076174;28;11515;-81
2021/12/18 05:44:30;;;;;;;;;29.00;28.00;;;;;;;;5079820;28;11569;-80
2021/12/18 05:46:57;;;;;;;;;26.25;23.25;;;;;;;;5081614;28;11558;-83
2021/12/18 05:49:25;;;;;;;;;29.00;25.75;;;;;;;;5084068;28;11572;-84
2021/12/18 05:51:53;;;;;;;;;25.00;22.50;;;;;;;;5075266;28;11702;-84
2021/12/18 05:54:20;;;;;;;;;28.75;26.00;;;;;;;;5080376;28;12434;-79
2021/12/18 05:56:49;;;;;;;;;24.25;23.00;;;;;;;;5071753;28;11668;-79
2021/12/18 05:59:16;;;;;;;;;31.50;27.50;;;;;;;;5070662;28;11544;-77
2021/12/18 06:01:44;;;;;;;;;38.00;34.75;;;;;;;;5078083;28;11547;-84
2021/12/18 06:04:11;;;;;;;;;36.50;28.25;;;;;;;;5069728;28;12358;-80
2021/12/18 06:06:39;;;;;;;;;40.75;30.50;;;;;;;;5044750;28;11671;-83
2021/12/18 06:09:07;;;;;;;;;26.50;22.00;;;;;;;;5080288;28;11537;-86
2021/12/18 06:11:37;;;;;;;;;27.00;26.25;;;;;;;;5078459;28;11678;-84
2021/12/18 06:14:06;;;;;;;;;24.75;23.25;;;;;;;;5088136;28;11527;-83
2021/12/18 06:16:33;;;;;;;;;40.75;31.00;;;;;;;;5073514;28;11557;-82
2021/12/18 06:19:01;;;;;;;;;32.50;32.50;;;;;;;;5056451;28;11686;-86
2021/12/18 06:21:29;;;;;;;;;33.50;27.50;;;;;;;;5067885;28;11570;-86
2021/12/18 06:26:38;;;;;;;;;34.25;25.25;;;;;;;;5081275;28;11662;-84
2021/12/18 06:29:07;;;;;;;;;33.75;28.00;;;;;;;;5077767;28;11666;-88
2021/12/18 06:31:37;;;;;;;;;38.50;33.00;;;;;;;;5070985;28;11572;-87
2021/12/18 06:34:05;;;;;;;;;26.50;23.00;;;;;;;;5072629;28;11509;-87
2021/12/18 06:36:32;;;;;;;;;32.75;27.50;;;;;;;;5079202;28;11582;-83
2021/12/18 06:38:59;;;;;;;;;32.00;28.00;;;;;;;;5081033;28;11044;-85
2021/12/18 06:41:27;;;;;;;;;39.50;37.50;;;;;;;;5082002;28;11706;-82
2021/12/18 06:43:54;;;;;;;;;36.25;32.50;;;;;;;;5076982;28;11518;-88
2021/12/18 06:46:23;;;;;;;;;41.75;39.75;;;;;;;;5072717;28;12407;-90
2021/12/18 06:48:50;;;;;;;;;47.50;40.25;;;;;;;;5081286;28;11664;-82
2021/12/18 06:51:18;;;;;;;;;35.25;31.25;;;;;;;;5082332;28;11520;-92
2021/12/18 06:53:45;;;;;;;;;30.75;30.25;;;;;;;;5070279;28;11543;-82
2021/12/18 06:56:13;;;;;;;;;38.00;36.25;;;;;;;;5079436;28;11699;-81
2021/12/18 06:58:41;;;;;;;;;40.00;37.75;;;;;;;;5080218;28;12384;-84
2021/12/18 07:01:09;;;;;;;;;34.00;31.75;;;;;;;;5070767;28;11606;-81
2021/12/18 07:03:38;;;;;;;;;37.50;30.50;;;;;;;;5060314;28;11536;-83
2021/12/18 07:06:05;;;;;;;;;34.00;31.25;;;;;;;;5082088;28;11158;-79
2021/12/18 07:08:32;;;;;;;;;43.50;34.50;;;;;;;;5076526;28;11554;-81
2021/12/18 07:11:00;;;;;;;;;36.00;34.00;;;;;;;;5078213;28;11640;-84
2021/12/18 07:13:29;;;;;;;;;34.50;30.50;;;;;;;;5080751;28;11151;-85
2021/12/18 07:15:56;;;;;;;;;28.25;28.25;;;;;;;;5076424;28;11538;-81
2021/12/18 07:18:23;;;;;;;;;38.50;37.25;;;;;;;;5081786;28;11660;-80
2021/12/18 07:20:55;;;;;;;;;28.75;28.75;;;;;;;;5081460;28;11674;-82
2021/12/18 07:23:24;;;;;;;;;37.00;34.75;;;;;;;;5078203;28;11631;-85
2021/12/18 07:25:51;;;;;;;;;37.25;35.00;;;;;;;;5069799;28;11532;-85
2021/12/18 07:28:21;;;;;;;;;40.00;33.25;;;;;;;;5082080;28;11587;-81
2021/12/18 07:30:48;;;;;;;;;31.25;30.00;;;;;;;;5075460;28;11509;-78
2021/12/18 07:33:16;;;;;;;;;47.75;41.50;;;;;;;;5080655;28;12329;-76
2021/12/18 07:35:43;;;;;;;;;53.50;43.50;;;;;;;;5076087;28;11524;-78
2021/12/18 07:38:13;;;;;;;;;49.50;39.25;;;;;;;;5061286;28;11783;-77
2021/12/18 07:40:41;;;;;;;;;52.50;38.75;;;;;;;;5057988;28;11642;-77
2021/12/18 07:43:08;;;;;;;;;50.50;44.25;;;;;;;;5082561;28;11555;-82
2021/12/18 07:45:36;;;;;;;;;51.75;40.75;;;;;;;;5081342;28;11594;-82
2021/12/18 07:48:04;;;;;;;;;42.75;35.00;;;;;;;;5078393;28;11549;-81
2021/12/18 07:50:32;;;;;;;;;55.00;45.00;;;;;;;;5084555;28;12368;-83
2021/12/18 07:52:59;;;;;;;;;46.25;41.75;;;;;;;;5080282;28;11571;-82
2021/12/18 07:55:29;;;;;;;;;51.75;40.50;;;;;;;;5072374;28;11523;-83
2021/12/18 07:57:57;;;;;;;;;50.25;38.50;;;;;;;;5064903;28;11576;-82
2021/12/18 08:00:24;;;;;;;;;50.50;40.50;;;;;;;;5073041;28;11523;-78
2021/12/18 08:02:51;;;;;;;;;47.50;40.75;;;;;;;;5095804;28;11562;-79
2021/12/18 08:05:19;;;;;;;;;45.75;42.25;;;;;;;;5067285;28;11662;-77
2021/12/18 08:07:46;;;;;;;;;55.50;42.25;;;;;;;;5084320;28;11542;-82
2021/12/18 08:10:16;;;;;;;;;55.25;43.00;;;;;;;;5080860;28;11582;-82
2021/12/18 08:12:45;;;;;;;;;53.00;43.00;;;;;;;;5086866;28;12387;-81
2021/12/18 08:15:13;;;;;;;;;49.00;43.50;;;;;;;;5086134;28;11685;-82
2021/12/18 08:17:41;;;;;;;;;44.50;39.75;;;;;;;;5082094;28;11545;-83
2021/12/18 08:20:12;;;;;;;;;59.00;48.00;;;;;;;;5056099;28;11592;-79
2021/12/18 08:22:39;;;;;;;;;59.00;43.50;;;;;;;;5081362;28;11569;-81
2021/12/18 08:25:08;;;;;;;;;62.25;47.75;;;;;;;;5085244;28;11559;-77
2021/12/18 08:27:36;;;;;;;;;57.75;43.25;;;;;;;;5063184;28;12287;-83
2021/12/18 08:30:06;;;;;;;;;56.00;45.75;;;;;;;;5051732;28;11568;-81
2021/12/18 08:32:34;;;;;;;;;62.50;48.25;;;;;;;;5083734;28;11659;-83
2021/12/18 08:35:01;;;;;;;;;62.50;51.75;;;;;;;;5078205;28;11641;-81
2021/12/18 08:37:30;;;;;;;;;38.50;38.50;;;;;;;;5083503;28;11649;-85
2021/12/18 08:39:57;;;;;;;;;56.50;41.25;;;;;;;;5077575;28;11531;-79
2021/12/18 08:42:26;;;;;;;;;46.75;40.25;;;;;;;;5069005;28;11582;-79
2021/12/18 08:44:54;;;;;;;;;66.00;49.75;;;;;;;;5037558;28;11654;-82
2021/12/18 08:47:22;;;;;;;;;54.50;47.75;;;;;;;;5032717;28;11694;-79
2021/12/18 08:49:50;;;;;;;;;66.00;50.00;;;;;;;;5035108;28;11611;-77
2021/12/18 08:52:17;;;;;;;;;57.50;45.25;;;;;;;;5039660;28;11748;-79
2021/12/18 08:54:45;;;;;;;;;57.75;46.50;;;;;;;;5042918;28;11623;-81
2021/12/18 08:57:12;;;;;;;;;62.50;50.00;;;;;;;;5037811;28;11712;-81
2021/12/18 08:59:40;;;;;;;;;55.50;45.00;;;;;;;;5035801;28;11617;-81
2021/12/18 09:02:09;;;;;;;;;53.75;46.25;;;;;;;;5042258;28;11581;-82
2021/12/18 09:04:39;;;;;;;;;48.00;41.00;;;;;;;;5045081;28;11600;-83
2021/12/18 09:07:07;;;;;;;;;59.75;44.00;;;;;;;;5039046;28;11651;-82
2021/12/18 09:09:35;;;;;;;;;46.75;42.00;;;;;;;;5039723;28;11638;-80
2021/12/18 09:12:02;;;;;;;;;57.00;46.50;;;;;;;;5036886;28;11658;-81
2021/12/18 09:14:29;;;;;;;;;33.75;29.50;;;;;;;;5037112;28;11627;-81
2021/12/18 09:16:57;;;;;;;;;51.75;43.50;;;;;;;;5045330;28;11597;-80
2021/12/18 09:19:25;;;;;;;;;42.25;38.25;;;;;;;;5034066;28;11617;-82
2021/12/18 09:21:53;;;;;;;;;54.00;47.00;;;;;;;;5038800;28;11631;-81
2021/12/18 09:24:21;;;;;;;;;46.50;42.75;;;;;;;;5042272;28;12383;-82
2021/12/18 09:26:49;;;;;;;;;47.50;40.75;;;;;;;;5030225;28;11659;-78
2021/12/18 09:29:16;;;;;;;;;55.75;44.50;;;;;;;;5030177;28;11622;-82
2021/12/18 09:31:44;;;;;;;;;42.75;39.00;;;;;;;;5040694;28;11598;-81
2021/12/18 09:34:11;;;;;;;;;49.00;41.25;;;;;;;;5044243;28;11616;-81
2021/12/18 09:36:39;;;;;;;;;48.00;40.25;;;;;;;;5037429;28;11595;-82
2021/12/18 09:39:08;;;;;;;;;58.50;46.00;;;;;;;;5035444;28;11617;-80
2021/12/18 09:41:36;;;;;;;;;51.00;39.75;;;;;;;;5032376;28;12395;-79
2021/12/18 09:44:05;;;;;;;;;52.50;43.00;;;;;;;;5067935;28;11619;-80
2021/12/18 09:46:36;;;;;;;;;43.00;38.00;;;;;;;;5066672;28;11557;-84
2021/12/18 09:49:04;;;;;;;;;41.00;39.25;;;;;;;;5071624;28;11562;-81
2021/12/18 09:51:34;;;;;;;;;42.75;32.50;;;;;;;;5085192;28;11689;-82
2021/12/18 09:54:01;;;;;;;;;48.75;41.75;;;;;;;;5072117;28;11559;-79
2021/12/18 09:56:30;;;;;;;;;49.25;43.00;;;;;;;;5067628;28;11552;-85
2021/12/18 09:58:58;;;;;;;;;45.75;40.50;;;;;;;;5072911;28;11674;-83
2021/12/18 10:01:25;;;;;;;;;41.25;40.00;;;;;;;;5080726;28;11513;-85
2021/12/18 10:03:58;;;;;;;;;44.00;40.75;;;;;;;;5076309;28;11634;-83
2021/12/18 10:06:39;;;;;;;;;36.00;36.00;;;;;;;;5074721;28;11573;-80
2021/12/18 10:09:11;;;;;;;;;39.00;34.75;;;;;;;;5073789;28;11563;-80
2021/12/18 10:11:47;;;;;;;;;43.50;38.25;;;;;;;;5057336;28;11543;-76
2021/12/18 10:14:15;;;;;;;;;38.75;36.25;;;;;;;;5073734;28;11526;-78
2021/12/18 10:16:44;;;;;;;;;35.50;34.00;;;;;;;;5068502;28;11476;-82
2021/12/18 10:19:27;;;;;;;;;37.50;32.25;;;;;;;;5080381;28;11547;-84
2021/12/18 10:21:58;;;;;;;;;40.50;38.50;;;;;;;;5075275;28;11503;-79
2021/12/18 10:24:27;;;;;;;;;42.50;35.25;;;;;;;;5074283;28;11610;-85
2021/12/18 10:26:56;;;;;;;;;36.00;33.00;;;;;;;;5072403;28;11535;-82
2021/12/18 10:29:27;;;;;;;;;23.75;20.75;;;;;;;;5059704;28;11622;-82
2021/12/18 10:31:55;;;;;;;;;47.25;37.50;;;;;;;;5071630;28;11437;-76
2021/12/18 10:34:24;;;;;;;;;49.00;41.25;;;;;;;;5077510;28;12229;-77
2021/12/18 10:37:15;;;;;;;;;41.75;35.75;;;;;;;;5079078;28;11617;-80
2021/12/18 10:39:56;;;;;;;;;27.00;24.00;;;;;;;;5076368;28;11483;-77
2021/12/18 10:42:28;;;;;;;;;42.00;32.00;;;;;;;;5072949;28;11496;-76
2021/12/18 10:45:02;;;;;;;;;44.00;39.75;;;;;;;;5074554;28;11526;-80
2021/12/18 10:47:44;;;;;;;;;38.00;33.25;;;;;;;;5067211;28;11459;-81
2021/12/18 10:50:21;;;;;;;;;42.00;37.00;;;;;;;;5078798;28;11443;-79
2021/12/18 10:52:54;;;;;;;;;54.25;39.00;;;;;;;;5073981;28;11506;-78
2021/12/18 10:55:28;;;;;;;;;35.00;29.50;;;;;;;;5081983;28;11549;-78
2021/12/18 10:57:57;;;;;;;;;35.75;35.00;;;;;;;;5077320;28;11287;-79
2021/12/18 11:00:44;;;;;;;;;35.50;30.00;;;;;;;;5080848;28;11075;-75
2021/12/18 11:03:18;;;;;;;;;38.00;37.50;;;;;;;;5070521;28;11217;-77
2021/12/18 11:05:46;;;;;;;;;32.50;28.75;;;;;;;;5077355;28;11589;-79
2021/12/18 11:08:14;;;;;;;;;53.50;41.25;;;;;;;;5078846;28;11233;-75
2021/12/18 11:10:55;;;;;;;;;41.75;36.00;;;;;;;;5075409;28;11548;-74
2021/12/18 11:13:41;;;;;;;;;27.50;23.50;;;;;;;;5072085;28;11183;-77
2021/12/18 11:16:08;;;;;;;;;37.25;35.75;;;;;;;;5071426;28;11165;-78
2021/12/18 11:18:37;;;;;;;;;33.50;28.75;;;;;;;;5075292;28;11185;-75
2021/12/18 11:21:04;;;;;;;;;38.75;31.25;;;;;;;;5074830;28;11019;-77
2021/12/18 11:23:39;;;;;;;;;31.25;31.25;;;;;;;;5079894;28;11090;-79
2021/12/18 11:26:07;;;;;;;;;34.50;32.75;;;;;;;;5072738;28;11004;-74
2021/12/18 11:28:38;;;;;;;;;31.00;30.00;;;;;;;;5080955;28;11003;-78
2021/12/18 11:31:06;;;;;;;;;31.25;26.75;;;;;;;;5074368;28;10947;-74
2021/12/18 11:33:34;;;;;;;;;44.00;34.25;;;;;;;;5074437;28;11011;-76
2021/12/18 11:36:03;;;;;;;;;35.25;32.50;;;;;;;;5075822;28;11036;-75
2021/12/18 11:38:31;;;;;;;;;49.25;36.50;;;;;;;;5054043;28;10820;-77
2021/12/18 11:40:59;;;;;;;;;36.75;29.25;;;;;;;;5074666;28;10694;-71
2021/12/18 11:43:36;;;;;;;;;36.25;33.50;;;;;;;;5078653;28;10564;-74
2021/12/18 11:46:26;;;;;;;;;24.50;22.00;;;;;;;;5075564;28;10605;-76
2021/12/18 11:48:53;;;;;;;;;34.00;33.50;;;;;;;;5068918;28;10689;-78
2021/12/18 11:51:21;;;;;;;;;32.00;30.75;;;;;;;;5079018;28;10679;-80
2021/12/18 11:53:48;;;;;;;;;27.25;23.00;;;;;;;;5053678;28;10744;-79
2021/12/18 11:56:15;;;;;;;;;32.50;30.75;;;;;;;;5078312;28;10563;-78
2021/12/18 11:58:46;;;;;;;;;39.00;33.75;;;;;;;;5071865;28;10524;-78
2021/12/18 12:01:17;;;;;;;;;34.00;31.00;;;;;;;;5069358;28;10560;-78
2021/12/18 12:03:46;;;;;;;;;30.00;30.00;;;;;;;;5078665;28;10516;-76
2021/12/18 12:06:30;;;;;;;;;33.00;29.75;;;;;;;;5075746;28;10519;-77
2021/12/18 12:09:26;;;;;;;;;37.50;31.00;;;;;;;;5075830;28;10560;-74
2021/12/18 12:11:58;;;;;;;;;30.50;30.00;;;;;;;;5080022;28;11423;-75
2021/12/18 12:14:28;;;;;;;;;31.00;30.00;;;;;;;;5083137;28;10526;-72
2021/12/18 12:17:14;;;;;;;;;31.25;24.50;;;;;;;;5082265;28;10487;-73
2021/12/18 12:19:57;;;;;;;;;37.00;32.50;;;;;;;;5077729;28;10368;-73
2021/12/18 12:22:48;;;;;;;;;38.00;33.25;;;;;;;;5083694;28;10600;-71
2021/12/18 12:25:18;;;;;;;;;41.00;31.75;;;;;;;;5076158;28;11863;-74
2021/12/18 12:27:47;;;;;;;;;32.75;28.25;;;;;;;;5078326;28;11261;-74
2021/12/18 12:30:31;;;;;;;;;31.75;30.50;;;;;;;;5081230;28;11318;-74
2021/12/18 12:33:01;;;;;;;;;40.75;31.50;;;;;;;;5086449;28;10304;-76
2021/12/18 12:35:29;;;;;;;;;28.75;28.25;;;;;;;;5081587;28;10353;-73
2021/12/18 12:37:57;;;;;;;;;38.00;33.00;;;;;;;;5083180;28;10196;-75
2021/12/18 12:40:34;;;;;;;;;30.25;29.50;;;;;;;;5078257;28;10437;-74
2021/12/18 12:43:14;;;;;;;;;31.25;30.75;;;;;;;;5085532;28;10148;-74
2021/12/18 12:45:46;;;;;;;;;33.00;29.75;;;;;;;;5076631;28;10174;-73
2021/12/18 12:48:13;;;;;;;;;24.50;24.50;;;;;;;;5080319;28;10213;-76
2021/12/18 12:50:41;;;;;;;;;27.75;25.00;;;;;;;;5082229;28;10055;-77
2021/12/18 12:53:09;;;;;;;;;25.75;22.25;;;;;;;;5076976;28;10107;-82
2021/12/18 12:55:42;;;;;;;;;16.00;14.00;;;;;;;;5072985;28;10671;-79
2021/12/18 12:58:21;;;;;;;;;31.00;29.25;;;;;;;;5078670;28;9965;-79
2021/12/18 13:00:55;;;;;;;;;23.50;23.50;;;;;;;;5074988;28;10010;-79
2021/12/18 13:03:32;;;;;;;;;24.75;21.50;;;;;;;;5060637;28;9889;-80
2021/12/18 13:06:11;;;;;;;;;35.50;30.25;;;;;;;;5076010;28;10033;-79
2021/12/18 13:08:41;;;;;;;;;29.25;25.50;;;;;;;;5077107;28;10119;-78
2021/12/18 13:11:10;;;;;;;;;24.25;22.00;;;;;;;;5081232;28;10029;-82
2021/12/18 13:13:37;;;;;;;;;28.75;25.50;;;;;;;;5080217;28;9854;-75
2021/12/18 13:16:10;;;;;;;;;28.75;23.50;;;;;;;;5061931;28;9896;-76
2021/12/18 13:18:40;;;;;;;;;28.75;24.50;;;;;;;;5075866;28;9939;-74
2021/12/18 13:21:10;;;;;;;;;25.25;21.50;;;;;;;;5073917;28;9839;-74
2021/12/18 13:23:45;;;;;;;;;25.25;25.25;;;;;;;;5072318;28;9849;-72
2021/12/18 13:26:15;;;;;;;;;28.50;27.00;;;;;;;;5070652;28;9745;-78
2021/12/18 13:28:57;;;;;;;;;22.00;18.25;;;;;;;;5076544;28;9872;-73
2021/12/18 13:31:27;;;;;;;;;31.25;29.00;;;;;;;;5056661;28;9712;-76
2021/12/18 13:34:03;;;;;;;;;28.25;22.75;;;;;;;;5080714;28;9755;-80
2021/12/18 13:36:47;;;;;;;;;26.00;25.00;;;;;;;;5074226;28;9788;-82
2021/12/18 13:39:15;;;;;;;;;22.50;20.50;;;;;;;;5069789;28;9897;-74
2021/12/18 13:42:01;;;;;;;;;30.25;25.25;;;;;;;;5080106;28;9769;-76
2021/12/18 13:44:47;;;;;;;;;26.75;25.75;;;;;;;;5069693;28;9800;-76
2021/12/18 13:47:29;;;;;;;;;20.25;20.00;;;;;;;;5058132;28;9790;-74
2021/12/18 13:50:03;;;;;;;;;28.00;25.25;;;;;;;;5074837;28;9740;-80
2021/12/18 13:52:32;;;;;;;;;29.25;26.50;;;;;;;;5080410;28;9772;-73
2021/12/18 13:55:00;;;;;;;;;29.00;24.50;;;;;;;;5072956;28;9957;-76
2021/12/18 13:57:27;;;;;;;;;32.50;29.25;;;;;;;;5078744;28;9909;-81
2021/12/18 13:59:59;;;;;;;;;26.25;26.25;;;;;;;;5070699;28;9897;-76
2021/12/18 14:02:29;;;;;;;;;24.50;22.50;;;;;;;;5072638;28;9749;-81
2021/12/18 14:04:56;;;;;;;;;33.75;27.50;;;;;;;;5071470;28;9932;-77
2021/12/18 14:07:24;;;;;;;;;34.25;28.00;;;;;;;;5071951;28;10736;-74
2021/12/18 14:09:52;;;;;;;;;23.75;17.50;;;;;;;;5071408;28;9802;-75
2021/12/18 14:12:22;;;;;;;;;26.75;26.25;;;;;;;;5076410;28;9891;-79
2021/12/18 14:14:52;;;;;;;;;38.25;32.25;;;;;;;;5079370;28;9957;-74
2021/12/18 14:17:35;;;;;;;;;39.00;30.50;;;;;;;;5064447;28;10065;-82
2021/12/18 14:20:08;;;;;;;;;25.00;24.50;;;;;;;;5070369;28;10066;-73
2021/12/18 14:22:36;;;;;;;;;30.00;28.00;;;;;;;;5073038;28;10052;-74
2021/12/18 14:25:07;;;;;;;;;33.25;29.50;;;;;;;;5067241;28;10155;-73
2021/12/18 14:27:43;;;;;;;;;27.50;27.25;;;;;;;;5070356;28;10061;-77
2021/12/18 14:30:16;;;;;;;;;27.00;23.75;;;;;;;;5075454;28;9914;-75
2021/12/18 14:32:45;;;;;;;;;39.50;34.00;;;;;;;;5078795;28;10123;-80
2021/12/18 14:35:15;;;;;;;;;38.25;34.25;;;;;;;;5078441;28;10129;-75
2021/12/18 14:37:50;;;;;;;;;42.50;36.00;;;;;;;;5083040;27;10085;-75
2021/12/18 14:40:20;;;;;;;;;31.25;29.25;;;;;;;;5079811;28;10036;-76
2021/12/18 14:42:58;;;;;;;;;30.25;29.25;;;;;;;;5077867;28;10203;-79
2021/12/18 14:45:28;;;;;;;;;32.00;29.00;;;;;;;;5067227;28;10127;-76
2021/12/18 14:47:59;;;;;;;;;31.25;26.00;;;;;;;;5084731;28;10178;-79
2021/12/18 14:50:27;;;;;;;;;36.75;33.00;;;;;;;;5070673;28;10141;-79
2021/12/18 14:53:05;;;;;;;;;34.75;31.50;;;;;;;;5068438;28;10213;-76
2021/12/18 14:55:35;;;;;;;;;39.25;33.75;;;;;;;;5071956;28;11152;-79
2021/12/18 14:58:06;;;;;;;;;32.25;31.00;;;;;;;;5055503;28;11322;-77
2021/12/18 15:00:36;;;;;;;;;41.50;37.25;;;;;;;;5070974;28;10446;-78
2021/12/18 15:03:09;;;;;;;;;44.25;37.25;;;;;;;;5072436;28;11219;-75
2021/12/18 15:05:45;;;;;;;;;39.50;31.00;;;;;;;;5075482;28;10759;-75
2021/12/18 15:08:16;;;;;;;;;39.25;37.25;;;;;;;;5073932;28;10640;-74
2021/12/18 15:10:48;;;;;;;;;45.75;41.00;;;;;;;;5079088;28;10921;-76
2021/12/18 15:13:16;;;;;;;;;48.75;39.50;;;;;;;;5084875;28;10863;-76
2021/12/18 15:15:44;;;;;;;;;54.00;40.50;;;;;;;;5075597;28;11006;-73
2021/12/18 15:18:13;;;;;;;;;43.25;39.25;;;;;;;;5072785;28;10835;-75
2021/12/18 15:20:41;;;;;;;;;39.75;36.75;;;;;;;;5076605;28;11167;-75
2021/12/18 15:23:08;;;;;;;;;41.25;37.25;;;;;;;;5052941;28;11033;-77